Time;durP1;ratioP1;P1;durP2;ratioP2;P2;SDS_P1;SDS_P2;PMS_P1;PMS_P2;Temp;Humidity;BMP_temperature;BMP_pressure;BME280_temperature;BME280_humidity;BME280_pressure;Samples;Min_cycle;Max_cycle;Signal;HPM_P1;HPM_P2
2022/04/01 00:00:56;;;;;;;2.90;2.05;;;;;;;3.15;40.44;99257.51;3250717;86;20990;-72
2022/04/01 00:05:50;;;;;;;3.20;1.75;;;;;;;3.12;40.53;99257.03;3309805;86;21108;-72
2022/04/01 00:10:46;;;;;;;2.20;1.77;;;;;;;3.07;40.69;99247.06;3321811;84;21028;-72
2022/04/01 00:15:42;;;;;;;2.40;1.67;;;;;;;3.05;40.86;99250.02;3300932;84;21046;-72
2022/04/01 00:20:56;;;;;;;;;;;;;;;;;;;;;
2022/04/01 00:25:44;;;;;;;3.65;1.90;;;;;;;3.01;41.13;99236.23;3304945;84;20982;-72
2022/04/01 00:30:44;;;;;;;3.55;1.82;;;;;;;2.99;41.30;99231.48;3320619;84;21639;-72
2022/04/01 00:35:43;;;;;;;2.50;1.90;;;;;;;2.99;41.51;99222.50;3340676;84;20966;-71
2022/04/01 00:40:35;;;;;;;2.92;1.40;;;;;;;2.95;41.56;99215.57;3344176;84;21544;-72
2022/04/01 00:45:27;;;;;;;2.50;1.95;;;;;;;2.93;41.67;99223.63;3334269;84;21035;-72
2022/04/01 00:50:22;;;;;;;2.30;2.10;;;;;;;2.93;41.76;99226.19;3318170;84;21021;-72
2022/04/01 00:55:17;;;;;;;3.30;2.00;;;;;;;2.92;41.79;99221.05;3334161;84;21528;-72
2022/04/01 01:00:17;;;;;;;5.37;2.02;;;;;;;2.89;41.88;99210.27;3287679;86;20990;-72
2022/04/01 01:05:10;;;;;;;1.85;1.65;;;;;;;2.86;41.84;99210.19;3297697;84;21005;-72
2022/04/01 01:10:04;;;;;;;2.25;1.80;;;;;;;2.85;41.92;99217.03;3261763;84;20991;-72
2022/04/01 01:14:55;;;;;;;2.27;1.37;;;;;;;2.83;41.94;99221.27;3250641;85;20934;-72
2022/04/01 01:19:53;;;;;;;2.83;1.92;;;;;;;2.84;41.96;99205.44;3264014;85;20965;-72
2022/04/01 01:24:49;;;;;;;4.97;1.70;;;;;;;2.79;41.94;99204.06;3219406;88;21065;-72
2022/04/01 01:29:50;;;;;;;3.00;2.20;;;;;;;2.78;42.10;99193.76;3278609;86;21116;-72
2022/04/01 01:34:36;;;;;;;9.05;2.58;;;;;;;2.73;42.43;99195.34;3259721;86;20944;-72
2022/04/01 01:39:28;;;;;;;2.67;1.80;;;;;;;2.65;42.69;99195.16;3248690;84;21021;-72
2022/04/01 01:44:22;;;;;;;3.12;2.15;;;;;;;2.63;43.35;99189.13;3230034;86;21022;-72
2022/04/01 01:49:16;;;;;;;2.90;1.65;;;;;;;2.53;43.90;99197.42;3243518;86;21036;-72
2022/04/01 01:59:23;;;;;;;3.37;2.10;;;;;;;2.33;45.16;99186.67;3241621;86;21037;-72
2022/04/01 02:04:16;;;;;;;2.80;2.02;;;;;;;2.25;45.65;99182.61;3291983;86;20923;-72
2022/04/01 02:09:08;;;;;;;2.27;1.72;;;;;;;2.22;45.88;99178.70;3273608;85;21030;-72
2022/04/01 02:14:00;;;;;;;3.50;1.67;;;;;;;2.19;46.31;99180.76;3258965;85;21456;-72
2022/04/01 02:18:53;;;;;;;3.22;1.80;;;;;;;2.15;47.19;99174.25;3265442;85;21481;-72
2022/04/01 02:23:50;;;;;;;4.28;2.15;;;;;;;2.07;47.19;99172.74;3278065;85;20980;-72
2022/04/01 02:28:49;;;;;;;2.30;1.82;;;;;;;1.96;47.90;99155.80;3262415;85;21496;-72
2022/04/01 02:33:39;;;;;;;3.10;1.70;;;;;;;1.95;48.01;99159.59;3272612;84;21290;-72
2022/04/01 02:38:33;;;;;;;3.65;1.90;;;;;;;1.87;48.78;99142.32;3255425;86;20976;-72
2022/04/01 02:43:30;;;;;;;2.35;1.72;;;;;;;1.79;49.39;99157.92;3263131;85;21525;-72
2022/04/01 02:48:34;;;;;;;;;;;;;;;;;;;;;
2022/04/01 02:53:40;;;;;;;2.30;1.90;;;;;;;1.64;50.73;99145.96;3245085;85;20982;-72
2022/04/01 02:58:46;;;;;;;;;;;;;;;;;;;;;
2022/04/01 03:03:41;;;;;;;;;;;;;;;;;;;;;
2022/04/01 03:08:43;;;;;;;2.92;2.20;;;;;;;1.32;52.98;99148.48;3244015;85;21250;-72
2022/04/01 03:13:35;;;;;;;2.83;1.65;;;;;;;1.27;53.35;99157.72;3283275;86;21029;-72
2022/04/01 03:19:00;;;;;;;;;;;;;;;;;;;;;
2022/04/01 03:24:07;;;;;;;;;;;;;;;;;;;;;
2022/04/01 03:29:10;;;;;;;;;;;;;;;;;;;;;
2022/04/01 03:39:27;;;;;;;;;;;;;;;;;;;;;
2022/04/01 03:44:25;;;;;;;2.17;1.72;;;;;;;1.11;54.96;99132.97;2901938;96;21039;-72
2022/04/01 03:49:33;;;;;;;;;;;;;;;;;;;;;
2022/04/01 03:54:26;;;;;;;3.30;2.08;;;;;;;1.00;55.32;99127.92;2884576;97;21786;-71
2022/04/01 03:59:50;;;;;;;;;;;;;;;;;;;;;
2022/04/01 04:04:43;;;;;;;11.30;2.55;;;;;;;0.93;55.90;99123.44;2885228;97;21111;-71
2022/04/01 04:09:39;;;;;;;3.40;1.55;;;;;;;0.95;56.03;99128.22;2901142;96;21091;-73
2022/04/01 04:14:31;;;;;;;1.72;1.52;;;;;;;0.94;56.01;99132.87;2890669;96;21054;-73
2022/04/01 04:19:58;;;;;;;4.28;1.55;;;;;;;0.90;56.42;99131.91;2882010;97;21095;-72
2022/04/01 04:24:58;;;;;;;4.33;2.40;;;;;;;0.91;56.68;99134.05;2849978;97;21111;-72
2022/04/01 04:29:52;;;;;;;1.72;1.62;;;;;;;0.86;56.62;99135.20;2867886;97;21123;-72
2022/04/01 04:34:50;;;;;;;3.40;1.72;;;;;;;0.84;56.95;99134.69;2965051;91;21030;-73
2022/04/01 04:39:44;;;;;;;3.08;1.92;;;;;;;0.75;57.81;99137.44;3088037;87;20978;-73
2022/04/01 04:44:36;;;;;;;2.05;1.77;;;;;;;0.72;57.83;99128.80;3261655;85;20938;-72
2022/04/01 04:49:29;;;;;;;2.70;1.98;;;;;;;0.69;57.80;99127.00;3249561;85;21897;-72
2022/04/01 04:54:22;;;;;;;9.10;3.95;;;;;;;0.70;58.00;99123.63;3244598;85;21588;-72
2022/04/01 04:59:20;;;;;;;4.75;2.02;;;;;;;0.67;58.28;99127.36;3225432;85;20998;-72
2022/04/01 05:04:33;;;;;;;4.55;2.22;;;;;;;0.65;58.32;99133.27;3199858;85;22087;-72
2022/04/01 05:09:55;;;;;;;3.65;2.83;;;;;;;0.63;58.33;99134.50;3237753;86;21499;-72
2022/04/01 05:15:09;;;;;;;2.80;2.17;;;;;;;0.62;58.56;99134.02;3280332;85;21085;-72
2022/04/01 05:20:15;;;;;;;3.95;2.05;;;;;;;0.61;59.52;99145.09;3161467;89;20999;-73
2022/04/01 05:25:02;;;;;;;5.97;2.60;;;;;;;0.62;59.61;99139.14;3232110;87;21101;-72
2022/04/01 05:30:05;;;;;;;3.22;2.45;;;;;;;0.60;59.64;99145.90;3243774;87;22172;-72
2022/04/01 05:35:00;;;;;;;3.77;2.40;;;;;;;0.57;59.96;99145.79;3180937;88;21351;-72
2022/04/01 05:39:53;;;;;;;4.28;2.22;;;;;;;0.54;60.70;99150.41;3232839;86;22890;-72
2022/04/01 05:44:48;;;;;;;4.12;2.90;;;;;;;0.53;61.18;99131.18;3177770;87;21102;-72
2022/04/01 05:49:44;;;;;;;5.47;2.75;;;;;;;0.52;61.14;99139.27;3254550;87;21081;-72
2022/04/01 05:54:51;;;;;;;3.02;2.35;;;;;;;0.49;61.20;99142.14;3297267;85;21660;-72
2022/04/01 05:59:47;;;;;;;3.37;3.05;;;;;;;0.40;61.65;99141.85;3251507;87;20990;-72
2022/04/01 06:11:11;;;;;;;2.50;1.77;;;;;;;0.39;61.92;99147.35;3277514;86;21013;-72
2022/04/01 06:17:08;;;;;;;4.12;2.70;;;;;;;0.43;62.08;99141.92;3266021;86;21024;-72
2022/04/01 06:22:20;;;;;;;2.75;2.00;;;;;;;0.48;62.29;99142.53;3209388;86;21069;-72
2022/04/01 06:32:54;;;;;;;4.25;2.62;;;;;;;0.60;62.32;99147.17;3172475;87;21167;-72
2022/04/01 06:38:29;;;;;;;4.03;2.37;;;;;;;0.66;62.74;99134.98;3157423;89;21054;-72
2022/04/01 06:43:37;;;;;;;8.00;4.33;;;;;;;0.65;62.65;99148.62;3142355;88;21017;-72
2022/04/01 06:48:46;;;;;;;5.83;3.60;;;;;;;0.75;62.73;99148.05;3161312;88;21101;-72
2022/04/01 06:54:11;;;;;;;4.30;3.12;;;;;;;0.75;62.94;99154.45;3164980;88;21042;-72
2022/04/01 06:59:24;;;;;;;6.50;3.22;;;;;;;0.83;62.87;99146.62;3153151;88;21029;-72
2022/04/01 07:04:15;;;;;;;4.67;2.85;;;;;;;0.87;62.88;99143.74;3179811;88;21602;-69
2022/04/01 07:09:39;;;;;;;4.70;2.47;;;;;;;0.94;63.01;99143.11;3147968;88;20994;-71
2022/04/01 07:14:32;;;;;;;5.20;3.30;;;;;;;0.95;63.16;99139.31;2932717;96;21105;-69
2022/04/01 07:19:23;;;;;;;5.50;3.25;;;;;;;1.01;63.25;99146.30;2953633;94;21260;-69
2022/04/01 07:24:15;;;;;;;4.20;2.80;;;;;;;1.01;63.46;99148.86;2935525;94;21136;-69
2022/04/01 07:29:06;;;;;;;3.52;2.50;;;;;;;1.04;63.67;99143.84;2978696;94;21247;-69
2022/04/01 07:33:58;;;;;;;3.02;2.15;;;;;;;1.00;63.72;99143.70;3054355;91;21004;-70
2022/04/01 07:38:49;;;;;;;4.65;2.80;;;;;;;0.94;63.99;99139.27;3146114;90;20999;-71
2022/04/01 07:43:40;;;;;;;4.65;2.52;;;;;;;1.04;64.13;99145.52;3174062;84;21024;-70
2022/04/01 07:48:32;;;;;;;7.08;2.80;;;;;;;1.02;64.10;99148.05;3326955;84;21822;-70
2022/04/01 07:53:23;;;;;;;4.50;2.65;;;;;;;1.08;64.56;99139.69;3319266;84;21326;-71
2022/04/01 07:58:15;;;;;;;4.97;2.85;;;;;;;0.99;64.55;99140.28;3325265;84;20934;-70
2022/04/01 08:03:06;;;;;;;4.58;2.58;;;;;;;0.99;64.55;99140.28;3308957;84;21923;-70
2022/04/01 08:07:58;;;;;;;6.22;3.52;;;;;;;1.00;64.41;99148.81;3304458;84;21094;-70
2022/04/01 08:12:49;;;;;;;8.58;3.47;;;;;;;1.04;64.56;99148.97;3244672;85;21523;-71
2022/04/01 08:17:40;;;;;;;8.00;3.70;;;;;;;1.04;64.67;99148.97;3242651;85;20970;-69
2022/04/01 08:22:31;;;;;;;7.58;4.22;;;;;;;1.08;64.77;99150.78;3298419;84;21268;-70
2022/04/01 08:27:23;;;;;;;8.00;4.40;;;;;;;1.19;64.86;99147.68;3288342;85;21014;-71
2022/04/01 08:32:15;;;;;;;7.25;4.65;;;;;;;1.28;64.86;99145.38;3289611;85;21462;-71
2022/04/01 08:37:07;;;;;;;7.55;4.65;;;;;;;1.38;64.80;99144.83;3222365;86;21026;-73
2022/04/01 08:41:59;;;;;;;8.28;5.17;;;;;;;1.48;64.52;99142.10;3231616;85;21118;-71
2022/04/01 08:46:52;;;;;;;9.10;4.45;;;;;;;1.52;64.66;99150.31;3232753;85;21043;-71
2022/04/01 08:51:44;;;;;;;8.15;4.58;;;;;;;1.60;64.61;99144.15;3242542;85;20973;-70
2022/04/01 08:56:35;;;;;;;5.15;3.87;;;;;;;1.63;64.54;99141.69;3215722;85;21547;-71
2022/04/01 09:01:43;;;;;;;4.33;3.55;;;;;;;1.71;64.53;99149.14;3259104;85;21028;-71
2022/04/01 09:06:41;;;;;;;5.25;3.62;;;;;;;1.73;64.41;99141.08;3287598;85;21015;-71
2022/04/01 09:11:33;;;;;;;4.25;3.40;;;;;;;1.71;64.32;99147.87;3328780;84;21001;-70
2022/04/01 09:16:32;;;;;;;4.28;3.40;;;;;;;1.65;64.52;99148.99;3306997;84;20938;-71
2022/04/01 09:21:32;;;;;;;8.65;5.15;;;;;;;1.77;64.52;99148.05;3335836;83;21227;-71
2022/04/01 09:26:37;;;;;;;5.87;4.30;;;;;;;1.92;64.28;99145.44;3287170;84;21098;-72
2022/04/01 09:31:38;;;;;;;6.50;4.58;;;;;;;1.97;64.05;99141.27;3306139;84;21242;-71
2022/04/01 09:36:36;;;;;;;11.38;5.60;;;;;;;2.02;64.01;99137.14;3319058;84;21551;-71
2022/04/01 09:41:46;;;;;;;6.83;3.92;;;;;;;2.07;64.13;99148.38;3296807;84;21041;-71
2022/04/01 09:46:49;;;;;;;5.80;3.75;;;;;;;2.09;63.90;99136.47;3282368;84;21644;-72
2022/04/01 09:51:47;;;;;;;6.62;3.67;;;;;;;2.10;64.04;99139.50;3332043;84;21558;-72
2022/04/01 09:56:43;;;;;;;7.25;4.10;;;;;;;2.01;64.42;99136.70;3299077;84;21088;-70
2022/04/01 10:01:36;;;;;;;5.28;3.30;;;;;;;1.92;64.50;99133.48;3329034;83;21565;-71
2022/04/01 10:06:31;;;;;;;4.40;3.77;;;;;;;1.88;64.79;99126.55;3307034;84;20927;-72
2022/04/01 10:11:23;;;;;;;6.17;4.92;;;;;;;1.99;64.85;99125.13;3351391;84;22228;-71
2022/04/01 10:16:16;;;;;;;11.22;4.50;;;;;;;2.06;64.73;99127.44;3313140;84;22062;-71
2022/04/01 10:21:10;;;;;;;10.32;3.87;;;;;;;2.04;64.81;99124.83;3306263;82;21566;-72
2022/04/01 10:26:14;;;;;;;6.62;4.00;;;;;;;1.73;65.06;99129.55;3302039;84;20978;-72
2022/04/01 10:31:11;;;;;;;5.20;3.85;;;;;;;1.62;65.40;99120.72;3329131;84;21327;-72
2022/04/01 10:36:27;;;;;;;7.87;3.40;;;;;;;1.55;65.97;99139.31;3306294;84;20998;-71
2022/04/01 10:41:19;;;;;;;5.17;3.90;;;;;;;1.47;66.10;99155.33;3349972;84;21047;-72
2022/04/01 10:46:15;;;;;;;5.22;4.65;;;;;;;1.47;66.34;99139.97;3342137;84;33853;-71
2022/04/01 10:56:28;;;;;;;5.83;4.22;;;;;;;1.65;66.40;99139.60;3347225;84;21033;-70
2022/04/01 11:01:24;;;;;;;5.72;4.10;;;;;;;1.78;66.63;99142.08;3285825;84;21041;-69
2022/04/01 11:06:27;;;;;;;5.80;3.35;;;;;;;1.81;66.77;99142.59;3267349;84;20982;-70
2022/04/01 11:11:18;;;;;;;14.13;6.80;;;;;;;1.79;66.50;99142.55;3322327;84;21642;-69
2022/04/01 11:16:21;;;;;;;9.83;4.60;;;;;;;1.88;66.55;99137.66;3284730;85;20994;-70
2022/04/01 11:21:17;;;;;;;8.85;4.45;;;;;;;1.92;66.90;99133.91;3305962;85;21511;-69
2022/04/01 11:26:09;;;;;;;6.97;3.90;;;;;;;1.89;66.95;99130.41;3327562;84;20994;-67
2022/04/01 11:31:04;;;;;;;9.28;3.60;;;;;;;1.97;66.75;99125.89;3339730;85;21206;-67
2022/04/01 11:35:57;;;;;;;4.95;3.62;;;;;;;2.00;66.81;99120.86;3336890;85;21033;-66
2022/04/01 11:40:54;;;;;;;10.23;4.85;;;;;;;2.00;66.83;99132.39;3262955;85;20974;-66
2022/04/01 11:45:57;;;;;;;9.60;3.97;;;;;;;2.07;66.65;99130.44;3268602;85;21002;-66
2022/04/01 11:50:52;;;;;;;5.67;4.05;;;;;;;2.22;66.52;99129.98;3285901;85;20971;-66
2022/04/01 11:55:43;;;;;;;5.55;3.95;;;;;;;2.42;66.29;99120.20;3268049;85;21873;-67
2022/04/01 12:00:34;;;;;;;5.17;3.52;;;;;;;2.43;66.02;99109.09;3259325;85;21524;-68
2022/04/01 12:05:29;;;;;;;7.67;4.85;;;;;;;2.52;66.26;99111.87;3276773;85;20982;-67
2022/04/01 12:10:25;;;;;;;4.95;4.00;;;;;;;2.44;66.14;99126.23;3311083;85;21548;-68
2022/04/01 12:15:16;;;;;;;7.25;3.75;;;;;;;2.46;66.49;99116.87;3287175;85;21029;-68
2022/04/01 12:20:13;;;;;;;6.20;4.90;;;;;;;2.45;66.48;99120.25;3284714;86;21080;-68
2022/04/01 12:25:06;;;;;;;9.03;4.87;;;;;;;2.31;66.61;99118.66;3316646;85;20954;-68
2022/04/01 12:29:58;;;;;;;6.87;4.97;;;;;;;2.25;66.67;99128.36;3281740;85;21481;-68
2022/04/01 12:34:50;;;;;;;5.05;3.95;;;;;;;2.17;67.56;99124.72;3249419;85;21575;-69
2022/04/01 12:39:45;;;;;;;9.93;5.47;;;;;;;2.12;67.24;99126.72;3258342;86;21539;-68
2022/04/01 12:44:44;;;;;;;7.08;5.03;;;;;;;2.22;67.35;99119.30;3254015;85;22309;-68
2022/04/01 12:49:35;;;;;;;6.40;4.10;;;;;;;2.32;67.27;99125.93;3311194;85;21472;-69
2022/04/01 12:54:34;;;;;;;8.88;4.08;;;;;;;2.27;67.14;99113.88;3260308;85;21017;-68
2022/04/01 12:59:26;;;;;;;6.22;3.87;;;;;;;2.29;67.10;99112.63;3335421;84;21045;-68
2022/04/01 13:04:20;;;;;;;8.05;4.67;;;;;;;2.38;67.07;99106.83;3309450;86;20967;-68
2022/04/01 13:09:11;;;;;;;7.22;4.67;;;;;;;2.36;67.09;99112.34;3273810;85;21636;-68
2022/04/01 13:14:08;;;;;;;6.15;4.83;;;;;;;2.29;67.21;99115.20;3342874;84;21006;-69
2022/04/01 13:19:29;;;;;;;11.43;6.33;;;;;;;2.23;67.60;99118.45;3295370;85;20911;-68
2022/04/01 13:24:40;;;;;;;8.60;5.35;;;;;;;2.21;67.65;99117.97;3337828;85;20978;-67
2022/04/01 13:29:33;;;;;;;6.67;4.53;;;;;;;2.08;68.12;99112.53;3336602;85;21014;-69
2022/04/01 13:34:24;;;;;;;7.08;4.33;;;;;;;1.97;68.38;99109.23;3273107;85;21241;-69
2022/04/01 13:39:18;;;;;;;10.63;4.70;;;;;;;1.94;68.35;99111.73;3294835;85;20994;-67
2022/04/01 13:44:09;;;;;;;6.37;4.08;;;;;;;1.90;68.57;99110.80;3297545;85;20946;-68
2022/04/01 13:49:05;;;;;;;10.10;4.80;;;;;;;1.87;68.60;99109.00;3321321;85;20922;-67
2022/04/01 13:53:57;;;;;;;6.85;4.70;;;;;;;1.86;68.69;99110.23;3294532;85;21037;-68
2022/04/01 13:58:48;;;;;;;6.12;4.62;;;;;;;1.80;69.11;99108.39;3278324;84;21840;-68
2022/04/01 14:03:40;;;;;;;5.42;4.78;;;;;;;1.83;69.26;99108.48;3307412;84;21050;-69
2022/04/01 14:08:31;;;;;;;9.48;4.92;;;;;;;1.77;69.27;99100.64;3349772;84;20996;-69
2022/04/01 14:13:23;;;;;;;8.93;5.35;;;;;;;1.75;69.31;99102.27;3308616;84;20998;-69
2022/04/01 14:18:14;;;;;;;7.45;4.55;;;;;;;1.73;69.54;99097.95;3318968;84;20954;-70
2022/04/01 14:23:06;;;;;;;7.28;5.05;;;;;;;1.66;69.67;99103.31;3257439;84;21717;-70
2022/04/01 14:27:58;;;;;;;6.05;4.87;;;;;;;1.61;70.05;99114.73;3305697;84;21500;-69
2022/04/01 14:32:53;;;;;;;6.75;4.90;;;;;;;1.55;70.10;99108.15;3288214;84;20933;-70
2022/04/01 14:37:45;;;;;;;6.55;4.53;;;;;;;1.48;70.17;99126.31;3312000;84;21005;-68
2022/04/01 14:42:36;;;;;;;5.53;3.95;;;;;;;1.46;70.36;99122.84;3308210;84;21463;-68
2022/04/01 14:47:29;;;;;;;5.20;3.67;;;;;;;1.51;71.01;99127.69;3260164;84;21056;-69
2022/04/01 14:52:20;;;;;;;9.85;5.22;;;;;;;1.49;70.65;99125.50;3287087;84;22300;-68
2022/04/01 14:57:11;;;;;;;8.40;4.97;;;;;;;1.60;70.61;99123.23;3268674;84;20993;-68
2022/04/01 15:02:03;;;;;;;7.97;5.37;;;;;;;1.70;70.73;99129.49;3298220;84;21573;-68
2022/04/01 15:06:55;;;;;;;6.33;4.53;;;;;;;1.64;70.52;99130.17;3310508;84;20966;-69
2022/04/01 15:11:47;;;;;;;11.48;5.65;;;;;;;1.56;70.78;99128.22;3310762;84;21852;-68
2022/04/01 15:16:39;;;;;;;7.53;5.17;;;;;;;1.55;70.90;99130.34;3316951;84;20944;-68
2022/04/01 15:21:34;;;;;;;7.53;5.25;;;;;;;1.48;71.28;99128.88;3336731;84;21167;-68
2022/04/01 15:26:25;;;;;;;11.03;5.35;;;;;;;1.45;71.36;99127.92;3316397;85;20951;-68
2022/04/01 15:31:16;;;;;;;8.45;5.25;;;;;;;1.45;71.29;99133.94;3270107;84;20960;-68
2022/04/01 15:36:10;;;;;;;6.20;5.00;;;;;;;1.40;71.46;99137.20;3320325;84;21544;-68
2022/04/01 15:41:08;;;;;;;8.40;5.33;;;;;;;1.33;72.32;99146.39;3298710;84;21000;-68
2022/04/01 15:46:05;;;;;;;6.65;5.25;;;;;;;1.30;71.77;99147.57;3313945;84;21454;-68
2022/04/01 15:51:01;;;;;;;9.50;5.73;;;;;;;1.26;71.93;99152.16;3318658;84;20920;-68
2022/04/01 15:55:53;;;;;;;6.17;5.17;;;;;;;1.22;72.07;99153.77;3304441;84;20931;-67
2022/04/01 16:00:45;;;;;;;8.28;5.62;;;;;;;1.22;72.25;99160.58;3313644;84;21256;-68
2022/04/01 16:05:38;;;;;;;9.30;5.80;;;;;;;1.22;72.38;99158.02;3280193;84;21001;-69
2022/04/01 16:10:31;;;;;;;7.25;5.50;;;;;;;1.18;72.53;99166.41;3299867;84;20971;-68
2022/04/01 16:15:22;;;;;;;8.28;6.05;;;;;;;1.12;72.76;99164.55;3261485;86;21018;-68
2022/04/01 16:20:14;;;;;;;7.72;5.60;;;;;;;1.14;72.87;99169.29;3308518;86;21061;-68
2022/04/01 16:25:06;;;;;;;6.25;5.08;;;;;;;1.09;72.85;99166.61;3262216;85;22770;-69
2022/04/01 16:29:59;;;;;;;8.58;5.83;;;;;;;1.05;73.16;99168.60;3279213;85;20973;-68
2022/04/01 16:34:51;;;;;;;11.85;9.30;;;;;;;1.04;73.18;99166.88;3285151;85;20931;-68
2022/04/01 16:39:47;;;;;;;8.70;6.95;;;;;;;1.05;73.44;99166.05;3273793;86;21005;-68
2022/04/01 16:44:39;;;;;;;7.75;5.70;;;;;;;0.99;73.82;99172.69;3297897;84;20982;-68
2022/04/01 16:49:30;;;;;;;9.30;6.85;;;;;;;0.94;73.60;99172.53;3200639;86;21527;-69
2022/04/01 16:54:22;;;;;;;10.75;7.67;;;;;;;0.97;73.72;99166.23;3255665;84;21607;-69
2022/04/01 16:59:13;;;;;;;9.78;6.78;;;;;;;0.94;73.82;99173.39;3288214;86;21028;-69
2022/04/01 17:04:05;;;;;;;11.22;7.35;;;;;;;0.94;73.97;99176.38;3287397;86;20954;-69
2022/04/01 17:14:06;;;;;;;7.10;6.12;;;;;;;0.88;74.21;99180.04;3315559;84;21782;-69
2022/04/01 17:18:58;;;;;;;7.60;5.78;;;;;;;0.80;74.35;99180.20;3330210;84;20998;-69
2022/04/01 17:23:49;;;;;;;8.40;6.25;;;;;;;0.80;74.37;99186.59;3299001;83;21449;-69
2022/04/01 17:28:41;;;;;;;7.53;6.45;;;;;;;0.82;74.43;99197.73;3333602;82;21045;-70
2022/04/01 17:33:35;;;;;;;10.82;6.35;;;;;;;0.79;74.52;99193.41;3339115;84;21061;-69
2022/04/01 17:38:28;;;;;;;10.50;6.90;;;;;;;0.76;74.83;99199.28;3336557;84;22009;-69
2022/04/01 17:43:22;;;;;;;10.48;7.85;;;;;;;0.76;74.89;99196.72;3312994;84;20947;-69
2022/04/01 17:48:15;;;;;;;10.10;7.42;;;;;;;0.77;74.78;99202.73;3313314;84;21447;-69
2022/04/01 17:53:07;;;;;;;9.90;6.58;;;;;;;0.75;75.25;99202.67;3357797;84;20966;-69
2022/04/01 17:58:03;;;;;;;10.13;7.00;;;;;;;0.74;74.95;99193.25;3322363;83;21681;-69
2022/04/01 18:02:54;;;;;;;15.00;9.50;;;;;;;0.71;75.12;99188.03;3337470;84;21491;-70
2022/04/01 18:08:01;;;;;;;23.50;21.10;;;;;;;0.72;75.15;99200.02;3319023;84;21033;-70
2022/04/01 18:12:53;;;;;;;13.90;11.73;;;;;;;0.73;75.33;99190.64;3295972;84;21001;-69
2022/04/01 18:17:45;;;;;;;32.80;29.87;;;;;;;0.69;75.55;99193.93;3271022;85;21040;-70
2022/04/01 18:22:37;;;;;;;13.68;9.55;;;;;;;0.68;75.45;99189.23;3269712;85;22024;-69
2022/04/01 18:28:03;;;;;;;13.32;9.18;;;;;;;0.72;75.60;99188.50;3238741;85;21043;-70
2022/04/01 18:33:08;;;;;;;10.15;8.48;;;;;;;0.74;75.59;99188.13;3266477;85;21120;-69
2022/04/01 18:38:04;;;;;;;10.78;7.12;;;;;;;0.70;75.74;99195.27;3244189;85;21009;-69
2022/04/01 18:42:59;;;;;;;11.95;8.55;;;;;;;0.70;75.72;99188.86;3236358;85;21005;-69
2022/04/01 18:47:51;;;;;;;9.65;8.65;;;;;;;0.72;75.90;99185.94;3247704;85;21037;-69
2022/04/01 18:52:45;;;;;;;10.38;7.42;;;;;;;0.69;75.82;99185.83;3218478;85;21406;-69
2022/04/01 18:57:37;;;;;;;14.58;11.30;;;;;;;0.69;75.92;99185.83;3260322;85;21096;-69
2022/04/01 19:02:47;;;;;;;21.20;11.20;;;;;;;0.72;76.00;99183.38;3299194;85;20997;-70
2022/04/01 19:08:05;;;;;;;36.40;19.73;;;;;;;0.69;76.21;99187.11;3308194;85;20982;-69
2022/04/01 19:12:58;;;;;;;27.00;17.35;;;;;;;0.68;76.23;99185.39;3293549;85;21063;-69
2022/04/01 19:17:51;;;;;;;6.55;5.47;;;;;;;0.70;76.27;99187.59;3248189;85;21151;-69
2022/04/01 19:22:47;;;;;;;7.62;6.08;;;;;;;0.66;76.77;99184.48;3247519;85;21026;-69
2022/04/01 19:27:39;;;;;;;17.75;13.08;;;;;;;0.63;76.45;99184.38;3231720;86;20998;-69
2022/04/01 19:32:30;;;;;;;18.92;14.00;;;;;;;0.67;76.49;99184.92;3260399;85;21093;-70
2022/04/01 19:37:22;;;;;;;12.07;9.88;;;;;;;0.66;76.50;99187.04;3248192;85;21017;-69
2022/04/01 19:42:14;;;;;;;16.62;11.25;;;;;;;0.66;76.57;99185.77;3252269;85;21086;-69
2022/04/01 19:47:06;;;;;;;11.88;9.00;;;;;;;0.66;76.83;99183.20;3267802;85;22061;-69
2022/04/01 19:51:58;;;;;;;7.05;5.62;;;;;;;0.67;76.83;99195.16;3241021;85;21520;-70
2022/04/01 19:56:50;;;;;;;22.17;19.82;;;;;;;0.65;77.03;99184.42;3270736;85;21053;-69
2022/04/01 20:01:42;;;;;;;7.90;5.58;;;;;;;0.68;76.97;99193.07;3287115;85;22079;-69
2022/04/01 20:06:35;;;;;;;7.47;6.33;;;;;;;0.65;77.01;99185.28;3204516;85;21201;-70
2022/04/01 20:11:26;;;;;;;7.42;5.55;;;;;;;0.65;76.92;99181.45;3300483;84;21049;-69
2022/04/01 20:16:17;;;;;;;6.05;5.12;;;;;;;0.67;76.92;99184.92;3269544;84;21006;-69
2022/04/01 20:21:08;;;;;;;5.42;4.35;;;;;;;0.65;76.97;99180.17;3296336;84;20994;-69
2022/04/01 20:26:00;;;;;;;8.53;4.97;;;;;;;0.65;77.07;99180.17;3345561;84;20983;-69
2022/04/01 20:30:54;;;;;;;6.47;5.33;;;;;;;0.66;76.95;99175.53;3278917;84;21524;-69
2022/04/01 20:35:45;;;;;;;6.85;4.45;;;;;;;0.64;77.15;99177.14;3311032;83;21026;-69
2022/04/01 20:40:36;;;;;;;7.08;4.80;;;;;;;0.64;77.27;99176.28;3314606;84;20995;-69
2022/04/01 20:45:27;;;;;;;7.03;5.55;;;;;;;0.64;77.33;99174.58;3271176;84;21271;-69
2022/04/01 20:50:21;;;;;;;5.92;5.22;;;;;;;0.63;77.32;99173.28;3334601;84;21010;-69
2022/04/01 20:55:13;;;;;;;5.95;4.87;;;;;;;0.61;77.46;99170.67;3277278;84;21575;-69
2022/04/01 21:00:08;;;;;;;5.95;5.20;;;;;;;0.64;77.43;99168.19;3308532;84;21042;-69
2022/04/01 21:04:59;;;;;;;5.60;5.10;;;;;;;0.63;77.53;99171.59;3275005;84;21000;-70
2022/04/01 21:09:52;;;;;;;6.28;4.78;;;;;;;0.65;77.47;99164.83;3243088;84;21042;-69
2022/04/01 21:14:43;;;;;;;5.67;4.67;;;;;;;0.69;77.46;99169.20;3343303;83;21595;-70
2022/04/01 21:19:34;;;;;;;6.28;5.08;;;;;;;0.69;77.55;99165.37;3278779;84;22040;-70
2022/04/01 21:24:25;;;;;;;14.25;10.50;;;;;;;0.67;77.55;99155.50;3289797;84;21022;-69
2022/04/01 21:29:17;;;;;;;11.33;7.62;;;;;;;0.69;77.68;99161.53;3273738;84;21020;-69
2022/04/01 21:34:09;;;;;;;20.10;14.83;;;;;;;0.71;77.62;99161.16;3312904;84;21562;-69
2022/04/01 21:39:04;;;;;;;5.58;4.72;;;;;;;0.66;77.69;99157.63;3330027;84;21768;-70
2022/04/01 21:43:56;;;;;;;8.35;6.97;;;;;;;0.70;77.65;99159.45;3312592;84;21759;-69
2022/04/01 21:48:49;;;;;;;6.62;5.08;;;;;;;0.69;77.74;99163.23;3275050;84;20992;-69
2022/04/01 21:53:40;;;;;;;7.22;5.50;;;;;;;0.68;78.06;99162.37;3311425;84;21015;-70
2022/04/01 21:58:31;;;;;;;6.17;4.87;;;;;;;0.65;77.96;99155.87;3296026;84;21558;-70
2022/04/01 22:03:22;;;;;;;19.77;18.00;;;;;;;0.65;77.97;99149.48;3294289;84;21278;-70
2022/04/01 22:08:14;;;;;;;6.20;5.60;;;;;;;0.64;77.97;99141.33;3312153;84;21086;-69
2022/04/01 22:13:06;;;;;;;4.90;4.37;;;;;;;0.64;78.08;99148.14;3325366;84;21009;-69
2022/04/01 22:18:02;;;;;;;7.90;6.12;;;;;;;0.66;78.39;99135.88;3324684;84;21016;-68
2022/04/01 22:22:54;;;;;;;5.10;4.60;;;;;;;0.67;78.08;99143.13;3295659;84;21538;-69
2022/04/01 22:27:47;;;;;;;5.12;4.40;;;;;;;0.67;78.06;99134.18;3351505;83;21757;-70
2022/04/01 22:32:41;;;;;;;5.00;4.50;;;;;;;0.68;78.14;99134.23;3280455;84;23365;-70
2022/04/01 22:37:33;;;;;;;4.65;4.00;;;;;;;0.68;78.28;99136.79;3278298;84;21009;-69
2022/04/01 22:42:25;;;;;;;6.37;4.78;;;;;;;0.67;78.13;99136.31;3322932;84;21061;-70
2022/04/01 22:47:16;;;;;;;7.10;5.22;;;;;;;0.65;78.25;99134.13;3301917;84;21444;-70
2022/04/01 22:52:20;;;;;;;5.75;5.15;;;;;;;0.60;78.14;99137.36;3295933;84;21431;-70
2022/04/01 22:57:11;;;;;;;5.45;4.87;;;;;;;0.57;78.32;99122.77;3301258;84;21068;-70
2022/04/01 23:02:04;;;;;;;6.70;5.87;;;;;;;0.58;78.55;99132.20;3349607;84;21081;-70
2022/04/01 23:06:56;;;;;;;6.03;5.40;;;;;;;0.54;78.28;99136.34;3340479;84;21128;-69
2022/04/01 23:11:48;;;;;;;6.53;5.33;;;;;;;0.51;78.29;99134.10;3298003;84;21230;-70
2022/04/01 23:16:39;;;;;;;5.58;5.08;;;;;;;0.52;78.25;99132.87;3281615;84;20994;-70
2022/04/01 23:21:31;;;;;;;6.22;5.25;;;;;;;0.53;78.37;99128.62;3307760;83;21136;-70
2022/04/01 23:26:22;;;;;;;6.17;5.50;;;;;;;0.50;78.46;99129.80;3262965;84;21005;-69
2022/04/01 23:31:14;;;;;;;6.25;5.12;;;;;;;0.49;78.32;99128.94;3296828;84;21000;-69
2022/04/01 23:36:07;;;;;;;6.03;5.42;;;;;;;0.49;78.38;99128.94;3303539;84;21113;-70
2022/04/01 23:41:01;;;;;;;5.75;5.03;;;;;;;0.47;78.32;99132.28;3311119;84;22122;-69
2022/04/01 23:45:53;;;;;;;6.78;5.70;;;;;;;0.49;78.25;99125.52;3312997;84;21085;-69
2022/04/01 23:50:44;;;;;;;6.12;5.17;;;;;;;0.49;78.45;99116.57;3239754;84;21532;-69
2022/04/01 23:55:36;;;;;;;5.15;4.55;;;;;;;0.47;78.38;99118.22;3330789;84;21004;-69
